createdAt,value
2019-03-29T00:00:24.609Z,10.60
2019-03-29T00:05:19.873Z,10.70
2019-03-29T00:10:19.357Z,10.70
2019-03-29T00:15:14.505Z,10.60
2019-03-29T00:20:09.305Z,10.60
2019-03-29T00:25:10.154Z,10.60
2019-03-29T00:30:12.040Z,10.50
2019-03-29T00:35:28.687Z,10.50
2019-03-29T00:40:34.454Z,10.50
2019-03-29T00:45:41.294Z,10.40
2019-03-29T00:50:40.614Z,10.40
2019-03-29T00:55:37.915Z,10.40
2019-03-29T01:00:42.075Z,10.40
2019-03-29T01:05:50.561Z,10.40
2019-03-29T01:10:56.374Z,10.30
2019-03-29T01:15:55.749Z,10.30
2019-03-29T01:21:01.751Z,10.30
2019-03-29T01:26:10.201Z,10.30
2019-03-29T01:31:15.162Z,10.30
2019-03-29T01:36:16.731Z,10.30
2019-03-29T01:41:16.064Z,10.30
2019-03-29T01:46:17.683Z,10.30
2019-03-29T01:51:17.500Z,10.20
2019-03-29T01:56:18.802Z,10.20
2019-03-29T02:01:19.547Z,10.30
2019-03-29T02:06:27.791Z,10.20
2019-03-29T02:11:49.775Z,10.20
2019-03-29T02:17:02.947Z,10.10
2019-03-29T02:22:02.896Z,10.10
2019-03-29T02:27:06.897Z,10.10
2019-03-29T02:32:06.342Z,10.10
2019-03-29T02:37:09.022Z,10.10
2019-03-29T02:42:14.773Z,10.00
2019-03-29T02:47:29.463Z,10.10
2019-03-29T02:52:29.921Z,10.00
2019-03-29T02:57:31.166Z,10.00
2019-03-29T03:02:27.089Z,9.90
2019-03-29T03:07:37.008Z,9.70
2019-03-29T03:12:42.254Z,9.70
2019-03-29T03:17:51.675Z,9.50
2019-03-29T03:22:56.061Z,9.40
2019-03-29T03:27:57.302Z,9.30
2019-03-29T03:32:59.253Z,9.30
2019-03-29T03:38:12.039Z,9.30
2019-03-29T03:43:09.307Z,9.40
2019-03-29T03:48:05.778Z,9.40
2019-03-29T03:53:07.439Z,9.40
2019-03-29T03:58:07.437Z,9.60
2019-03-29T04:08:51.073Z,9.60
2019-03-29T04:13:52.173Z,9.60
2019-03-29T04:19:02.685Z,9.70
2019-03-29T04:24:01.047Z,9.70
2019-03-29T04:29:04.835Z,9.80
2019-03-29T04:34:12.281Z,9.80
2019-03-29T04:39:32.218Z,9.80
2019-03-29T04:44:33.844Z,9.80
2019-03-29T04:49:37.050Z,9.90
2019-03-29T04:54:38.645Z,9.90
2019-03-29T04:59:45.336Z,10.00
2019-03-29T05:04:48.718Z,9.90
2019-03-29T05:09:49.740Z,9.90
2019-03-29T05:14:50.503Z,9.80
2019-03-29T05:20:12.854Z,9.90
2019-03-29T05:25:22.908Z,9.90
2019-03-29T05:30:28.650Z,10.00
2019-03-29T05:35:26.644Z,10.10
2019-03-29T05:40:34.371Z,10.30
2019-03-29T05:45:24.335Z,10.40
2019-03-29T05:50:20.847Z,10.50
2019-03-29T05:55:33.181Z,10.70
2019-03-29T06:00:38.723Z,10.90
2019-03-29T06:05:38.729Z,10.90
2019-03-29T06:10:48.714Z,10.90
2019-03-29T06:15:56.032Z,11.10
2019-03-29T06:21:08.198Z,11.20
2019-03-29T06:26:08.343Z,11.30
2019-03-29T06:31:09.656Z,11.50
2019-03-29T06:36:43.868Z,11.80
2019-03-29T06:41:53.751Z,12.30
2019-03-29T06:46:57.548Z,12.70
2019-03-29T06:51:59.472Z,13.20
2019-03-29T06:57:03.197Z,13.60
2019-03-29T07:02:08.648Z,13.40
2019-03-29T07:07:07.863Z,13.40
2019-03-29T07:12:09.963Z,13.20
2019-03-29T07:17:28.380Z,13.00
2019-03-29T07:23:04.114Z,13.00
2019-03-29T07:33:09.913Z,15.30
2019-03-29T07:38:07.617Z,16.80
2019-03-29T07:43:07.164Z,18.20
2019-03-29T07:48:05.645Z,19.10
2019-03-29T07:53:08.377Z,20.20
2019-03-29T07:58:09.270Z,20.70
2019-03-29T08:03:08.324Z,21.20
2019-03-29T08:08:23.274Z,22.70
2019-03-29T08:13:19.281Z,24.00
2019-03-29T08:18:20.471Z,24.40
2019-03-29T08:23:28.541Z,24.50
2019-03-29T08:28:37.077Z,24.80
2019-03-29T08:33:36.138Z,23.80
2019-03-29T08:38:34.998Z,23.90
2019-03-29T08:43:39.284Z,27.30
2019-03-29T08:48:36.642Z,30.30
2019-03-29T08:53:41.326Z,28.70
2019-03-29T08:58:37.982Z,30.10
2019-03-29T09:04:04.773Z,31.90
2019-03-29T09:08:50.266Z,34.40
2019-03-29T09:13:54.654Z,33.00
2019-03-29T09:18:58.817Z,28.60
2019-03-29T09:23:54.708Z,24.40
2019-03-29T09:29:12.704Z,21.80
2019-03-29T09:34:22.626Z,20.20
2019-03-29T09:44:37.695Z,18.60
2019-03-29T09:49:35.320Z,18.30
2019-03-29T09:54:40.503Z,18.00
2019-03-29T09:59:41.220Z,17.90
2019-03-29T10:04:41.101Z,17.90
2019-03-29T10:09:49.164Z,18.30
2019-03-29T10:14:54.428Z,18.60
2019-03-29T10:20:03.415Z,19.50
2019-03-29T10:25:18.464Z,19.60
2019-03-29T10:30:06.981Z,19.70
2019-03-29T10:35:17.715Z,19.60
2019-03-29T10:40:16.086Z,19.60
2019-03-29T10:45:25.353Z,19.60
2019-03-29T10:50:29.762Z,19.90
2019-03-29T10:55:27.055Z,19.80
2019-03-29T11:00:40.162Z,19.60
2019-03-29T11:05:40.922Z,19.60
2019-03-29T11:10:45.043Z,19.30
2019-03-29T11:15:44.218Z,19.60
2019-03-29T11:20:42.137Z,20.10
2019-03-29T11:25:55.146Z,20.30
2019-03-29T11:30:54.806Z,21.30
2019-03-29T11:35:56.309Z,22.20
2019-03-29T11:40:54.468Z,21.70
2019-03-29T11:46:04.024Z,21.20
2019-03-29T11:51:01.010Z,21.30
2019-03-29T11:56:03.431Z,21.20
2019-03-29T12:01:07.943Z,21.20
2019-03-29T12:06:14.788Z,21.40
2019-03-29T12:11:16.819Z,21.50
2019-03-29T12:16:14.637Z,21.40
2019-03-29T12:21:13.772Z,21.60
2019-03-29T12:26:15.664Z,21.70
2019-03-29T12:31:30.810Z,21.10
2019-03-29T12:36:42.412Z,20.10
2019-03-29T12:42:01.013Z,19.40
2019-03-29T12:47:04.445Z,18.90
2019-03-29T12:52:05.888Z,18.70
2019-03-29T12:57:06.942Z,18.60
2019-03-29T13:02:02.625Z,17.90
2019-03-29T13:07:02.037Z,17.30
2019-03-29T13:12:00.547Z,16.90
2019-03-29T13:17:02.952Z,16.50
2019-03-29T13:22:04.499Z,16.60
2019-03-29T13:27:13.181Z,16.70
2019-03-29T13:32:09.155Z,16.40
2019-03-29T13:37:09.233Z,16.30
2019-03-29T13:42:18.806Z,16.20
2019-03-29T13:47:28.644Z,16.30
2019-03-29T13:52:35.264Z,16.30
2019-03-29T13:57:38.370Z,16.10
2019-03-29T14:02:34.736Z,16.00
2019-03-29T14:07:35.417Z,16.00
2019-03-29T14:12:33.032Z,16.10
2019-03-29T14:17:33.080Z,16.20
2019-03-29T14:22:32.658Z,16.20
2019-03-29T14:27:31.970Z,16.10
2019-03-29T14:32:32.764Z,15.90
2019-03-29T14:37:34.924Z,15.70
2019-03-29T14:42:40.038Z,15.80
2019-03-29T14:47:45.630Z,15.80
2019-03-29T14:52:56.472Z,15.80
2019-03-29T14:57:58.297Z,15.80
2019-03-29T15:03:02.302Z,15.90
2019-03-29T15:08:07.106Z,16.00
2019-03-29T15:13:08.167Z,16.00
2019-03-29T15:18:08.169Z,15.90
2019-03-29T15:23:05.908Z,15.90
2019-03-29T15:28:12.673Z,16.00
2019-03-29T15:33:14.522Z,15.90
2019-03-29T15:38:10.318Z,15.90
2019-03-29T15:43:12.739Z,15.80
2019-03-29T15:48:11.736Z,15.60
2019-03-29T15:53:09.885Z,15.60
2019-03-29T15:58:18.247Z,15.60
2019-03-29T16:03:20.171Z,15.50
2019-03-29T16:08:16.824Z,15.40
2019-03-29T16:13:13.220Z,15.40
2019-03-29T16:18:10.888Z,15.30
2019-03-29T16:23:07.406Z,15.20
2019-03-29T16:28:05.315Z,15.10
2019-03-29T16:33:04.451Z,14.90
2019-03-29T16:38:03.039Z,14.80
2019-03-29T16:43:06.592Z,14.70
2019-03-29T16:48:14.097Z,14.50
2019-03-29T16:53:12.427Z,14.40
2019-03-29T16:58:08.187Z,14.30
2019-03-29T17:03:14.327Z,14.20
2019-03-29T17:08:05.300Z,14.10
2019-03-29T17:12:59.542Z,14.10
2019-03-29T17:17:59.611Z,13.90
2019-03-29T17:22:59.033Z,13.70
2019-03-29T17:27:57.188Z,13.40
2019-03-29T17:33:04.003Z,13.20
2019-03-29T17:38:04.599Z,13.10
2019-03-29T17:43:02.175Z,12.90
2019-03-29T17:48:01.904Z,12.70
2019-03-29T17:53:01.411Z,12.60
2019-03-29T17:58:08.462Z,12.50
2019-03-29T18:03:12.885Z,12.40
2019-03-29T18:08:15.555Z,12.30
2019-03-29T18:13:09.693Z,12.00
2019-03-29T18:18:12.865Z,11.80
2019-03-29T18:23:12.825Z,11.60
2019-03-29T18:28:11.331Z,11.30
2019-03-29T18:33:11.253Z,11.20
2019-03-29T18:38:13.196Z,11.00
2019-03-29T18:43:12.346Z,10.80
2019-03-29T18:48:11.448Z,10.70
2019-03-29T18:53:08.480Z,10.50
2019-03-29T18:58:09.623Z,10.30
2019-03-29T19:03:39.019Z,10.30
2019-03-29T19:08:17.158Z,10.20
2019-03-29T19:13:09.530Z,10.10
2019-03-29T19:18:14.738Z,10.00
2019-03-29T19:23:13.421Z,9.90
2019-03-29T19:28:15.854Z,9.80
2019-03-29T19:33:12.479Z,9.60
2019-03-29T19:38:16.255Z,9.60
2019-03-29T19:43:18.411Z,9.60
2019-03-29T19:48:24.293Z,9.50
2019-03-29T19:53:25.285Z,9.30
2019-03-29T19:58:22.028Z,9.20
2019-03-29T20:03:22.556Z,9.20
2019-03-29T20:08:23.807Z,9.30
2019-03-29T20:13:26.700Z,9.20
2019-03-29T20:18:31.120Z,9.10
2019-03-29T20:23:28.910Z,8.90
2019-03-29T20:28:31.840Z,8.70
2019-03-29T20:33:31.556Z,8.60
2019-03-29T20:38:27.722Z,8.30
2019-03-29T20:43:27.394Z,8.20
2019-03-29T20:48:28.270Z,8.20
2019-03-29T20:53:31.300Z,8.20
2019-03-29T20:58:34.488Z,8.10
2019-03-29T21:03:30.761Z,7.90
2019-03-29T21:08:29.218Z,7.80
2019-03-29T21:13:24.357Z,7.80
2019-03-29T21:18:22.303Z,7.80
2019-03-29T21:23:30.085Z,7.70
2019-03-29T21:28:36.158Z,7.60
2019-03-29T21:33:36.487Z,7.50
2019-03-29T21:38:33.242Z,7.40
2019-03-29T21:43:31.618Z,7.30
2019-03-29T21:48:31.250Z,7.20
2019-03-29T21:53:35.672Z,7.10
2019-03-29T21:58:36.601Z,7.00
2019-03-29T22:03:47.843Z,7.00
2019-03-29T22:08:50.355Z,6.90
2019-03-29T22:13:49.535Z,6.80
2019-03-29T22:18:49.023Z,6.70
2019-03-29T22:23:50.200Z,6.70
2019-03-29T22:28:50.134Z,6.60
2019-03-29T22:33:50.894Z,6.50
2019-03-29T22:38:50.605Z,6.50
2019-03-29T22:43:50.775Z,6.30
2019-03-29T22:48:52.423Z,6.30
2019-03-29T22:53:57.001Z,6.20
2019-03-29T22:59:00.209Z,6.20
2019-03-29T23:04:12.838Z,6.10
2019-03-29T23:09:12.987Z,6.00
2019-03-29T23:14:10.550Z,6.00
2019-03-29T23:19:09.148Z,5.90
2019-03-29T23:24:15.792Z,5.80
2019-03-29T23:29:20.332Z,5.80
2019-03-29T23:34:24.185Z,5.70
2019-03-29T23:39:25.420Z,5.70
2019-03-29T23:44:26.093Z,5.70
2019-03-29T23:49:23.287Z,5.60
2019-03-29T23:54:23.782Z,5.40
2019-03-29T23:59:21.753Z,5.40
